sensor_id;sensor_type;location;lat;lon;timestamp;temperature;humidity
21770;DHT22;11046;49.558;8.674;2023-11-19T00:00:36;7.70;99.90
21770;DHT22;11046;49.558;8.674;2023-11-19T00:03:36;7.80;99.90
21770;DHT22;11046;49.558;8.674;2023-11-19T00:06:37;7.80;99.90
21770;DHT22;11046;49.558;8.674;2023-11-19T00:09:38;7.80;99.90
21770;DHT22;11046;49.558;8.674;2023-11-19T00:12:42;7.90;99.90
21770;DHT22;11046;49.558;8.674;2023-11-19T00:15:42;7.90;99.90
21770;DHT22;11046;49.558;8.674;2023-11-19T00:18:43;8.00;99.90
21770;DHT22;11046;49.558;8.674;2023-11-19T00:21:44;8.00;99.90
21770;DHT22;11046;49.558;8.674;2023-11-19T00:24:44;8.00;99.90
21770;DHT22;11046;49.558;8.674;2023-11-19T00:27:45;8.00;99.90
21770;DHT22;11046;49.558;8.674;2023-11-19T00:30:46;8.00;99.90
21770;DHT22;11046;49.558;8.674;2023-11-19T00:33:46;8.00;99.90
21770;DHT22;11046;49.558;8.674;2023-11-19T00:36:47;8.00;99.90
21770;DHT22;11046;49.558;8.674;2023-11-19T00:39:48;8.00;99.90
21770;DHT22;11046;49.558;8.674;2023-11-19T00:42:49;8.10;99.90
21770;DHT22;11046;49.558;8.674;2023-11-19T00:45:50;8.10;99.90
21770;DHT22;11046;49.558;8.674;2023-11-19T00:48:51;8.20;99.90
21770;DHT22;11046;49.558;8.674;2023-11-19T00:51:52;8.20;99.90
21770;DHT22;11046;49.558;8.674;2023-11-19T00:54:53;8.30;99.90
21770;DHT22;11046;49.558;8.674;2023-11-19T00:57:54;8.30;99.90
21770;DHT22;11046;49.558;8.674;2023-11-19T01:00:56;8.40;99.90
21770;DHT22;11046;49.558;8.674;2023-11-19T01:03:57;8.30;99.90
21770;DHT22;11046;49.558;8.674;2023-11-19T01:06:58;8.40;99.90
21770;DHT22;11046;49.558;8.674;2023-11-19T01:09:58;8.40;99.90
21770;DHT22;11046;49.558;8.674;2023-11-19T01:12:59;8.30;99.90
21770;DHT22;11046;49.558;8.674;2023-11-19T01:16:00;8.30;99.90
21770;DHT22;11046;49.558;8.674;2023-11-19T01:19:02;8.40;99.90
21770;DHT22;11046;49.558;8.674;2023-11-19T01:22:05;8.40;99.90
21770;DHT22;11046;49.558;8.674;2023-11-19T01:25:06;8.40;99.90
21770;DHT22;11046;49.558;8.674;2023-11-19T01:28:07;8.50;99.90
21770;DHT22;11046;49.558;8.674;2023-11-19T01:31:08;8.50;99.90
21770;DHT22;11046;49.558;8.674;2023-11-19T01:34:09;8.50;99.90
21770;DHT22;11046;49.558;8.674;2023-11-19T01:37:10;8.50;99.90
21770;DHT22;11046;49.558;8.674;2023-11-19T01:40:12;8.60;99.90
21770;DHT22;11046;49.558;8.674;2023-11-19T01:43:31;8.60;99.90
21770;DHT22;11046;49.558;8.674;2023-11-19T01:46:34;8.60;99.90
21770;DHT22;11046;49.558;8.674;2023-11-19T01:49:35;8.60;99.90
21770;DHT22;11046;49.558;8.674;2023-11-19T01:52:36;8.60;99.90
21770;DHT22;11046;49.558;8.674;2023-11-19T01:55:38;8.60;99.90
21770;DHT22;11046;49.558;8.674;2023-11-19T01:58:39;8.60;99.90
21770;DHT22;11046;49.558;8.674;2023-11-19T02:01:41;8.60;99.90
21770;DHT22;11046;49.558;8.674;2023-11-19T02:04:42;8.60;99.90
21770;DHT22;11046;49.558;8.674;2023-11-19T02:07:43;8.60;99.90
21770;DHT22;11046;49.558;8.674;2023-11-19T02:10:44;8.70;99.90
21770;DHT22;11046;49.558;8.674;2023-11-19T02:13:45;8.70;99.90
21770;DHT22;11046;49.558;8.674;2023-11-19T02:16:45;8.70;99.90
21770;DHT22;11046;49.558;8.674;2023-11-19T02:19:46;8.70;99.90
21770;DHT22;11046;49.558;8.674;2023-11-19T02:22:47;8.70;99.90
21770;DHT22;11046;49.558;8.674;2023-11-19T02:29:23;8.70;99.90
21770;DHT22;11046;49.558;8.674;2023-11-19T02:32:26;8.70;99.90
21770;DHT22;11046;49.558;8.674;2023-11-19T02:35:28;8.80;99.90
21770;DHT22;11046;49.558;8.674;2023-11-19T02:38:30;8.80;99.90
21770;DHT22;11046;49.558;8.674;2023-11-19T02:41:31;8.90;99.90
21770;DHT22;11046;49.558;8.674;2023-11-19T02:44:31;8.90;99.90
21770;DHT22;11046;49.558;8.674;2023-11-19T02:47:33;8.90;99.90
21770;DHT22;11046;49.558;8.674;2023-11-19T02:50:34;8.90;99.90
21770;DHT22;11046;49.558;8.674;2023-11-19T02:53:34;9.00;99.90
21770;DHT22;11046;49.558;8.674;2023-11-19T02:56:35;8.90;99.90
21770;DHT22;11046;49.558;8.674;2023-11-19T02:59:38;8.90;99.90
21770;DHT22;11046;49.558;8.674;2023-11-19T03:02:41;9.00;99.90
21770;DHT22;11046;49.558;8.674;2023-11-19T03:05:46;9.00;99.90
21770;DHT22;11046;49.558;8.674;2023-11-19T03:08:47;8.90;99.90
21770;DHT22;11046;49.558;8.674;2023-11-19T03:11:48;8.90;99.90
21770;DHT22;11046;49.558;8.674;2023-11-19T03:14:50;9.00;99.90
21770;DHT22;11046;49.558;8.674;2023-11-19T03:17:51;9.00;99.90
21770;DHT22;11046;49.558;8.674;2023-11-19T03:20:52;9.00;99.90
21770;DHT22;11046;49.558;8.674;2023-11-19T03:23:52;9.00;99.90
21770;DHT22;11046;49.558;8.674;2023-11-19T03:26:53;9.00;99.90
21770;DHT22;11046;49.558;8.674;2023-11-19T03:29:54;9.10;99.90
21770;DHT22;11046;49.558;8.674;2023-11-19T03:32:57;9.10;99.90
21770;DHT22;11046;49.558;8.674;2023-11-19T03:35:58;9.10;99.90
21770;DHT22;11046;49.558;8.674;2023-11-19T03:38:59;9.20;99.90
21770;DHT22;11046;49.558;8.674;2023-11-19T03:41:59;9.20;99.90
21770;DHT22;11046;49.558;8.674;2023-11-19T03:45:00;9.10;99.90
21770;DHT22;11046;49.558;8.674;2023-11-19T03:48:01;9.20;99.90
21770;DHT22;11046;49.558;8.674;2023-11-19T03:51:01;9.20;99.90
21770;DHT22;11046;49.558;8.674;2023-11-19T03:54:02;9.30;99.90
21770;DHT22;11046;49.558;8.674;2023-11-19T03:57:03;9.30;99.90
21770;DHT22;11046;49.558;8.674;2023-11-19T04:00:04;9.30;99.90
21770;DHT22;11046;49.558;8.674;2023-11-19T04:03:14;9.30;99.90
21770;DHT22;11046;49.558;8.674;2023-11-19T04:06:15;9.30;99.90
21770;DHT22;11046;49.558;8.674;2023-11-19T04:09:16;9.30;99.90
21770;DHT22;11046;49.558;8.674;2023-11-19T04:12:16;9.40;99.90
21770;DHT22;11046;49.558;8.674;2023-11-19T04:15:17;9.40;99.90
21770;DHT22;11046;49.558;8.674;2023-11-19T04:18:18;9.30;99.90
21770;DHT22;11046;49.558;8.674;2023-11-19T04:21:18;9.40;99.90
21770;DHT22;11046;49.558;8.674;2023-11-19T04:24:19;9.40;99.90
21770;DHT22;11046;49.558;8.674;2023-11-19T04:27:19;9.40;99.90
21770;DHT22;11046;49.558;8.674;2023-11-19T04:30:20;9.40;99.90
21770;DHT22;11046;49.558;8.674;2023-11-19T04:33:21;9.40;99.90
21770;DHT22;11046;49.558;8.674;2023-11-19T04:36:21;9.50;99.90
21770;DHT22;11046;49.558;8.674;2023-11-19T04:39:24;9.50;99.90
21770;DHT22;11046;49.558;8.674;2023-11-19T04:42:25;9.50;99.90
21770;DHT22;11046;49.558;8.674;2023-11-19T04:45:25;9.50;99.90
21770;DHT22;11046;49.558;8.674;2023-11-19T04:48:26;9.50;99.90
21770;DHT22;11046;49.558;8.674;2023-11-19T04:51:27;9.60;99.90
21770;DHT22;11046;49.558;8.674;2023-11-19T04:54:27;9.60;99.90
21770;DHT22;11046;49.558;8.674;2023-11-19T04:57:28;9.60;99.90
21770;DHT22;11046;49.558;8.674;2023-11-19T05:00:28;9.60;99.90
21770;DHT22;11046;49.558;8.674;2023-11-19T05:03:30;9.60;99.90
21770;DHT22;11046;49.558;8.674;2023-11-19T05:06:31;9.70;99.90
21770;DHT22;11046;49.558;8.674;2023-11-19T05:09:32;9.70;99.90
21770;DHT22;11046;49.558;8.674;2023-11-19T05:12:32;9.70;99.90
21770;DHT22;11046;49.558;8.674;2023-11-19T05:15:33;9.70;99.90
21770;DHT22;11046;49.558;8.674;2023-11-19T05:18:33;9.70;99.90
21770;DHT22;11046;49.558;8.674;2023-11-19T05:21:34;9.80;99.90
21770;DHT22;11046;49.558;8.674;2023-11-19T05:24:36;9.80;99.90
21770;DHT22;11046;49.558;8.674;2023-11-19T05:27:37;9.80;99.90
21770;DHT22;11046;49.558;8.674;2023-11-19T05:30:38;9.80;99.90
21770;DHT22;11046;49.558;8.674;2023-11-19T05:33:38;9.90;99.90
21770;DHT22;11046;49.558;8.674;2023-11-19T05:36:39;9.90;99.90
21770;DHT22;11046;49.558;8.674;2023-11-19T05:39:40;9.90;99.90
21770;DHT22;11046;49.558;8.674;2023-11-19T05:42:41;9.90;99.90
21770;DHT22;11046;49.558;8.674;2023-11-19T05:45:42;10.00;99.90
21770;DHT22;11046;49.558;8.674;2023-11-19T05:48:42;9.90;99.90
21770;DHT22;11046;49.558;8.674;2023-11-19T05:51:43;9.90;99.90
21770;DHT22;11046;49.558;8.674;2023-11-19T05:54:44;9.90;99.90
21770;DHT22;11046;49.558;8.674;2023-11-19T05:57:44;10.00;99.90
21770;DHT22;11046;49.558;8.674;2023-11-19T06:00:47;10.00;99.90
21770;DHT22;11046;49.558;8.674;2023-11-19T06:03:47;10.10;99.90
21770;DHT22;11046;49.558;8.674;2023-11-19T06:06:50;10.10;99.90
21770;DHT22;11046;49.558;8.674;2023-11-19T06:09:51;10.10;99.90
21770;DHT22;11046;49.558;8.674;2023-11-19T06:12:52;10.20;99.90
21770;DHT22;11046;49.558;8.674;2023-11-19T06:15:56;10.20;99.90
21770;DHT22;11046;49.558;8.674;2023-11-19T06:18:57;10.20;99.90
21770;DHT22;11046;49.558;8.674;2023-11-19T06:21:57;10.20;99.90
21770;DHT22;11046;49.558;8.674;2023-11-19T06:24:58;10.30;99.90
21770;DHT22;11046;49.558;8.674;2023-11-19T06:27:58;10.30;99.90
21770;DHT22;11046;49.558;8.674;2023-11-19T06:30:59;10.30;99.90
21770;DHT22;11046;49.558;8.674;2023-11-19T06:34:00;10.30;99.90
21770;DHT22;11046;49.558;8.674;2023-11-19T06:37:00;10.30;99.90
21770;DHT22;11046;49.558;8.674;2023-11-19T06:40:03;10.40;99.90
21770;DHT22;11046;49.558;8.674;2023-11-19T06:43:05;10.40;99.90
21770;DHT22;11046;49.558;8.674;2023-11-19T06:46:16;10.40;99.90
21770;DHT22;11046;49.558;8.674;2023-11-19T06:49:17;10.40;99.90
21770;DHT22;11046;49.558;8.674;2023-11-19T06:52:18;10.40;99.90
21770;DHT22;11046;49.558;8.674;2023-11-19T06:55:19;10.50;99.90
21770;DHT22;11046;49.558;8.674;2023-11-19T06:58:20;10.40;99.90
21770;DHT22;11046;49.558;8.674;2023-11-19T07:01:20;10.50;99.90
21770;DHT22;11046;49.558;8.674;2023-11-19T07:04:21;10.50;99.90
21770;DHT22;11046;49.558;8.674;2023-11-19T07:07:22;10.50;99.90
21770;DHT22;11046;49.558;8.674;2023-11-19T07:10:23;10.50;99.90
21770;DHT22;11046;49.558;8.674;2023-11-19T07:13:24;10.60;99.90
21770;DHT22;11046;49.558;8.674;2023-11-19T07:16:24;10.60;99.90
21770;DHT22;11046;49.558;8.674;2023-11-19T07:19:25;10.60;99.90
21770;DHT22;11046;49.558;8.674;2023-11-19T07:22:26;10.70;99.90
21770;DHT22;11046;49.558;8.674;2023-11-19T07:25:26;10.70;99.90
21770;DHT22;11046;49.558;8.674;2023-11-19T07:28:27;10.80;99.90
21770;DHT22;11046;49.558;8.674;2023-11-19T07:31:29;10.80;99.90
21770;DHT22;11046;49.558;8.674;2023-11-19T07:34:29;10.90;99.90
21770;DHT22;11046;49.558;8.674;2023-11-19T07:37:30;10.80;99.90
21770;DHT22;11046;49.558;8.674;2023-11-19T07:40:31;10.90;99.90
21770;DHT22;11046;49.558;8.674;2023-11-19T07:43:31;10.90;99.90
21770;DHT22;11046;49.558;8.674;2023-11-19T07:46:32;10.90;99.90
21770;DHT22;11046;49.558;8.674;2023-11-19T07:49:33;10.90;99.90
21770;DHT22;11046;49.558;8.674;2023-11-19T07:52:34;11.00;99.90
21770;DHT22;11046;49.558;8.674;2023-11-19T07:55:35;11.00;99.90
21770;DHT22;11046;49.558;8.674;2023-11-19T07:58:35;11.00;99.90
21770;DHT22;11046;49.558;8.674;2023-11-19T08:01:36;11.00;99.90
21770;DHT22;11046;49.558;8.674;2023-11-19T08:04:37;11.10;99.90
21770;DHT22;11046;49.558;8.674;2023-11-19T08:07:40;11.20;99.90
21770;DHT22;11046;49.558;8.674;2023-11-19T08:10:41;11.20;99.90
21770;DHT22;11046;49.558;8.674;2023-11-19T08:13:41;11.20;99.90
21770;DHT22;11046;49.558;8.674;2023-11-19T08:16:43;11.10;99.90
21770;DHT22;11046;49.558;8.674;2023-11-19T08:19:43;11.10;99.90
21770;DHT22;11046;49.558;8.674;2023-11-19T08:22:45;11.10;99.90
21770;DHT22;11046;49.558;8.674;2023-11-19T08:25:46;11.10;99.90
21770;DHT22;11046;49.558;8.674;2023-11-19T08:28:47;11.10;99.90
21770;DHT22;11046;49.558;8.674;2023-11-19T08:31:50;11.10;99.90
21770;DHT22;11046;49.558;8.674;2023-11-19T08:34:51;11.10;99.90
21770;DHT22;11046;49.558;8.674;2023-11-19T08:37:52;11.00;99.90
21770;DHT22;11046;49.558;8.674;2023-11-19T08:40:55;11.10;99.90
21770;DHT22;11046;49.558;8.674;2023-11-19T08:44:00;11.10;99.90
21770;DHT22;11046;49.558;8.674;2023-11-19T08:47:01;11.20;99.90
21770;DHT22;11046;49.558;8.674;2023-11-19T08:50:02;11.30;99.90
21770;DHT22;11046;49.558;8.674;2023-11-19T08:53:04;11.70;99.90
21770;DHT22;11046;49.558;8.674;2023-11-19T08:56:09;11.90;99.90
21770;DHT22;11046;49.558;8.674;2023-11-19T08:59:10;12.10;99.90
21770;DHT22;11046;49.558;8.674;2023-11-19T09:02:11;12.20;99.90
21770;DHT22;11046;49.558;8.674;2023-11-19T09:05:11;12.20;99.90
21770;DHT22;11046;49.558;8.674;2023-11-19T09:08:13;12.20;99.90
21770;DHT22;11046;49.558;8.674;2023-11-19T09:11:13;12.20;99.90
21770;DHT22;11046;49.558;8.674;2023-11-19T09:14:14;12.20;99.90
21770;DHT22;11046;49.558;8.674;2023-11-19T09:17:14;12.20;99.90
21770;DHT22;11046;49.558;8.674;2023-11-19T09:20:15;12.30;99.90
21770;DHT22;11046;49.558;8.674;2023-11-19T09:23:16;12.30;99.90
21770;DHT22;11046;49.558;8.674;2023-11-19T09:26:17;12.30;99.90
21770;DHT22;11046;49.558;8.674;2023-11-19T09:29:17;12.40;99.90
21770;DHT22;11046;49.558;8.674;2023-11-19T09:32:19;12.30;99.90
21770;DHT22;11046;49.558;8.674;2023-11-19T09:35:20;12.30;99.90
21770;DHT22;11046;49.558;8.674;2023-11-19T09:38:21;12.30;99.90
21770;DHT22;11046;49.558;8.674;2023-11-19T09:41:21;12.30;99.90
21770;DHT22;11046;49.558;8.674;2023-11-19T09:44:24;12.20;99.90
21770;DHT22;11046;49.558;8.674;2023-11-19T09:47:25;12.20;99.90
21770;DHT22;11046;49.558;8.674;2023-11-19T09:50:28;12.10;99.90
21770;DHT22;11046;49.558;8.674;2023-11-19T09:53:29;12.10;99.90
21770;DHT22;11046;49.558;8.674;2023-11-19T09:56:30;12.10;99.90
21770;DHT22;11046;49.558;8.674;2023-11-19T09:59:33;12.10;99.90
21770;DHT22;11046;49.558;8.674;2023-11-19T10:02:34;12.20;99.90
21770;DHT22;11046;49.558;8.674;2023-11-19T10:05:37;12.10;99.90
21770;DHT22;11046;49.558;8.674;2023-11-19T10:08:41;12.20;99.90
21770;DHT22;11046;49.558;8.674;2023-11-19T10:11:43;12.20;99.90
21770;DHT22;11046;49.558;8.674;2023-11-19T10:14:45;12.20;99.90
21770;DHT22;11046;49.558;8.674;2023-11-19T10:17:46;12.20;99.90
21770;DHT22;11046;49.558;8.674;2023-11-19T10:20:47;12.10;99.90
21770;DHT22;11046;49.558;8.674;2023-11-19T10:23:52;12.10;99.90
21770;DHT22;11046;49.558;8.674;2023-11-19T10:26:56;12.20;99.90
21770;DHT22;11046;49.558;8.674;2023-11-19T10:29:59;12.20;99.90
21770;DHT22;11046;49.558;8.674;2023-11-19T10:33:07;12.20;99.90
21770;DHT22;11046;49.558;8.674;2023-11-19T10:36:09;12.20;99.90
21770;DHT22;11046;49.558;8.674;2023-11-19T10:39:10;12.20;99.90
21770;DHT22;11046;49.558;8.674;2023-11-19T10:42:16;12.30;99.90
21770;DHT22;11046;49.558;8.674;2023-11-19T10:45:24;12.40;99.90
21770;DHT22;11046;49.558;8.674;2023-11-19T10:48:24;12.50;99.90
21770;DHT22;11046;49.558;8.674;2023-11-19T10:51:26;12.60;99.90
21770;DHT22;11046;49.558;8.674;2023-11-19T10:54:28;12.80;99.90
21770;DHT22;11046;49.558;8.674;2023-11-19T10:57:30;13.10;99.90
21770;DHT22;11046;49.558;8.674;2023-11-19T11:00:57;13.30;99.90
21770;DHT22;11046;49.558;8.674;2023-11-19T11:03:59;13.50;99.90
21770;DHT22;11046;49.558;8.674;2023-11-19T11:07:01;13.70;99.90
21770;DHT22;11046;49.558;8.674;2023-11-19T11:10:02;13.90;99.90
21770;DHT22;11046;49.558;8.674;2023-11-19T11:13:06;14.00;99.90
21770;DHT22;11046;49.558;8.674;2023-11-19T11:16:08;14.10;99.90
21770;DHT22;11046;49.558;8.674;2023-11-19T11:19:10;14.10;99.90
21770;DHT22;11046;49.558;8.674;2023-11-19T11:22:12;14.10;99.90
21770;DHT22;11046;49.558;8.674;2023-11-19T11:25:23;14.10;99.90
21770;DHT22;11046;49.558;8.674;2023-11-19T11:28:35;14.10;99.90
21770;DHT22;11046;49.558;8.674;2023-11-19T11:35:30;13.90;99.90
21770;DHT22;11046;49.558;8.674;2023-11-19T11:38:36;13.80;99.90
21770;DHT22;11046;49.558;8.674;2023-11-19T11:41:40;13.80;99.90
21770;DHT22;11046;49.558;8.674;2023-11-19T11:45:06;13.80;99.90
21770;DHT22;11046;49.558;8.674;2023-11-19T11:48:11;13.70;99.90
21770;DHT22;11046;49.558;8.674;2023-11-19T11:51:12;13.60;99.90
21770;DHT22;11046;49.558;8.674;2023-11-19T11:57:19;13.60;99.90
21770;DHT22;11046;49.558;8.674;2023-11-19T12:00:39;13.60;99.90
21770;DHT22;11046;49.558;8.674;2023-11-19T12:03:40;13.70;99.90
21770;DHT22;11046;49.558;8.674;2023-11-19T12:06:41;13.60;99.90
21770;DHT22;11046;49.558;8.674;2023-11-19T12:09:48;13.60;99.90
21770;DHT22;11046;49.558;8.674;2023-11-19T12:12:49;13.60;99.90
21770;DHT22;11046;49.558;8.674;2023-11-19T12:19:03;13.60;99.90
21770;DHT22;11046;49.558;8.674;2023-11-19T12:22:10;13.60;99.90
21770;DHT22;11046;49.558;8.674;2023-11-19T12:25:12;13.50;99.90
21770;DHT22;11046;49.558;8.674;2023-11-19T12:28:14;13.60;99.90
21770;DHT22;11046;49.558;8.674;2023-11-19T12:31:16;13.60;99.90
21770;DHT22;11046;49.558;8.674;2023-11-19T12:34:17;13.70;99.90
21770;DHT22;11046;49.558;8.674;2023-11-19T12:37:17;13.70;99.90
21770;DHT22;11046;49.558;8.674;2023-11-19T12:40:24;13.70;99.90
21770;DHT22;11046;49.558;8.674;2023-11-19T12:43:25;13.70;99.90
21770;DHT22;11046;49.558;8.674;2023-11-19T12:46:27;13.70;99.90
21770;DHT22;11046;49.558;8.674;2023-11-19T12:49:30;13.70;99.90
21770;DHT22;11046;49.558;8.674;2023-11-19T12:52:32;13.80;99.90
21770;DHT22;11046;49.558;8.674;2023-11-19T12:55:34;13.80;99.90
21770;DHT22;11046;49.558;8.674;2023-11-19T12:58:36;13.80;99.90
21770;DHT22;11046;49.558;8.674;2023-11-19T13:01:39;13.80;99.90
21770;DHT22;11046;49.558;8.674;2023-11-19T13:04:41;13.80;99.90
21770;DHT22;11046;49.558;8.674;2023-11-19T13:07:43;13.90;99.90
21770;DHT22;11046;49.558;8.674;2023-11-19T13:10:52;13.90;99.90
21770;DHT22;11046;49.558;8.674;2023-11-19T13:14:01;14.00;99.90
21770;DHT22;11046;49.558;8.674;2023-11-19T13:17:01;14.00;99.90
21770;DHT22;11046;49.558;8.674;2023-11-19T13:20:02;14.00;99.90
21770;DHT22;11046;49.558;8.674;2023-11-19T13:23:05;13.90;99.90
21770;DHT22;11046;49.558;8.674;2023-11-19T13:26:07;14.00;99.90
21770;DHT22;11046;49.558;8.674;2023-11-19T13:29:08;14.00;99.90
21770;DHT22;11046;49.558;8.674;2023-11-19T13:32:10;14.00;99.90
21770;DHT22;11046;49.558;8.674;2023-11-19T13:35:15;14.10;99.90
21770;DHT22;11046;49.558;8.674;2023-11-19T13:38:16;14.10;99.90
21770;DHT22;11046;49.558;8.674;2023-11-19T13:41:17;14.10;99.90
21770;DHT22;11046;49.558;8.674;2023-11-19T13:44:17;14.10;99.90
21770;DHT22;11046;49.558;8.674;2023-11-19T13:47:18;14.00;99.90
21770;DHT22;11046;49.558;8.674;2023-11-19T13:50:19;13.90;99.90
21770;DHT22;11046;49.558;8.674;2023-11-19T13:53:21;13.90;99.90
21770;DHT22;11046;49.558;8.674;2023-11-19T13:56:22;13.80;99.90
21770;DHT22;11046;49.558;8.674;2023-11-19T13:59:22;13.80;99.90
21770;DHT22;11046;49.558;8.674;2023-11-19T14:02:23;13.90;99.90
21770;DHT22;11046;49.558;8.674;2023-11-19T14:05:23;13.90;99.90
21770;DHT22;11046;49.558;8.674;2023-11-19T14:08:24;13.90;99.90
21770;DHT22;11046;49.558;8.674;2023-11-19T14:11:25;13.90;99.90
21770;DHT22;11046;49.558;8.674;2023-11-19T14:14:26;13.90;99.90
21770;DHT22;11046;49.558;8.674;2023-11-19T14:17:26;13.80;99.90
21770;DHT22;11046;49.558;8.674;2023-11-19T14:20:27;13.80;99.90
21770;DHT22;11046;49.558;8.674;2023-11-19T14:23:28;13.80;99.90
21770;DHT22;11046;49.558;8.674;2023-11-19T14:26:28;13.80;99.90
21770;DHT22;11046;49.558;8.674;2023-11-19T14:29:29;13.80;99.90
21770;DHT22;11046;49.558;8.674;2023-11-19T14:32:31;13.70;99.90
21770;DHT22;11046;49.558;8.674;2023-11-19T14:35:31;13.70;99.90
21770;DHT22;11046;49.558;8.674;2023-11-19T14:38:34;13.80;99.90
21770;DHT22;11046;49.558;8.674;2023-11-19T14:41:34;13.70;99.90
21770;DHT22;11046;49.558;8.674;2023-11-19T14:44:35;13.80;99.90
21770;DHT22;11046;49.558;8.674;2023-11-19T14:47:36;13.80;99.90
21770;DHT22;11046;49.558;8.674;2023-11-19T14:50:37;13.80;99.90
21770;DHT22;11046;49.558;8.674;2023-11-19T14:53:38;13.70;99.80
21770;DHT22;11046;49.558;8.674;2023-11-19T14:56:38;13.70;99.80
21770;DHT22;11046;49.558;8.674;2023-11-19T14:59:39;13.70;99.70
21770;DHT22;11046;49.558;8.674;2023-11-19T15:02:40;13.70;99.70
21770;DHT22;11046;49.558;8.674;2023-11-19T15:05:41;13.60;99.70
21770;DHT22;11046;49.558;8.674;2023-11-19T15:08:42;13.60;99.60
21770;DHT22;11046;49.558;8.674;2023-11-19T15:11:45;13.60;99.50
21770;DHT22;11046;49.558;8.674;2023-11-19T15:14:46;13.60;99.50
21770;DHT22;11046;49.558;8.674;2023-11-19T15:17:47;13.50;99.30
21770;DHT22;11046;49.558;8.674;2023-11-19T15:20:47;13.40;99.20
21770;DHT22;11046;49.558;8.674;2023-11-19T15:23:48;13.30;99.20
21770;DHT22;11046;49.558;8.674;2023-11-19T15:26:49;13.20;99.30
21770;DHT22;11046;49.558;8.674;2023-11-19T15:29:49;13.10;99.40
21770;DHT22;11046;49.558;8.674;2023-11-19T15:32:50;13.10;99.50
21770;DHT22;11046;49.558;8.674;2023-11-19T15:35:51;13.00;99.40
21770;DHT22;11046;49.558;8.674;2023-11-19T15:38:52;12.90;99.50
21770;DHT22;11046;49.558;8.674;2023-11-19T15:41:53;12.90;99.60
21770;DHT22;11046;49.558;8.674;2023-11-19T15:44:53;12.80;99.70
21770;DHT22;11046;49.558;8.674;2023-11-19T15:47:54;12.80;99.70
21770;DHT22;11046;49.558;8.674;2023-11-19T15:50:55;12.80;99.80
21770;DHT22;11046;49.558;8.674;2023-11-19T15:53:56;12.70;99.80
21770;DHT22;11046;49.558;8.674;2023-11-19T15:56:56;12.70;99.80
21770;DHT22;11046;49.558;8.674;2023-11-19T15:59:57;12.70;99.80
21770;DHT22;11046;49.558;8.674;2023-11-19T16:02:58;12.70;99.90
21770;DHT22;11046;49.558;8.674;2023-11-19T16:05:58;12.70;99.90
21770;DHT22;11046;49.558;8.674;2023-11-19T16:08:59;12.70;99.90
21770;DHT22;11046;49.558;8.674;2023-11-19T16:12:00;12.70;99.90
21770;DHT22;11046;49.558;8.674;2023-11-19T16:15:01;12.70;99.90
21770;DHT22;11046;49.558;8.674;2023-11-19T16:18:02;12.70;99.90
21770;DHT22;11046;49.558;8.674;2023-11-19T16:21:03;12.60;99.90
21770;DHT22;11046;49.558;8.674;2023-11-19T16:24:04;12.60;99.90
21770;DHT22;11046;49.558;8.674;2023-11-19T16:27:05;12.50;99.90
21770;DHT22;11046;49.558;8.674;2023-11-19T16:30:06;12.50;99.90
21770;DHT22;11046;49.558;8.674;2023-11-19T16:33:07;12.50;99.90
21770;DHT22;11046;49.558;8.674;2023-11-19T16:36:11;12.40;99.90
21770;DHT22;11046;49.558;8.674;2023-11-19T16:39:14;12.30;99.90
21770;DHT22;11046;49.558;8.674;2023-11-19T16:42:15;12.30;99.90
21770;DHT22;11046;49.558;8.674;2023-11-19T16:45:18;12.30;99.90
21770;DHT22;11046;49.558;8.674;2023-11-19T16:48:19;12.30;99.90
21770;DHT22;11046;49.558;8.674;2023-11-19T16:51:19;12.30;99.90
21770;DHT22;11046;49.558;8.674;2023-11-19T16:54:20;12.40;99.90
21770;DHT22;11046;49.558;8.674;2023-11-19T16:57:21;12.40;99.90
21770;DHT22;11046;49.558;8.674;2023-11-19T17:00:23;12.40;99.90
21770;DHT22;11046;49.558;8.674;2023-11-19T17:03:23;12.40;99.90
21770;DHT22;11046;49.558;8.674;2023-11-19T17:06:24;12.40;99.90
21770;DHT22;11046;49.558;8.674;2023-11-19T17:09:25;12.40;99.90
21770;DHT22;11046;49.558;8.674;2023-11-19T17:12:25;12.30;99.90
21770;DHT22;11046;49.558;8.674;2023-11-19T17:15:26;12.30;99.90
21770;DHT22;11046;49.558;8.674;2023-11-19T17:18:27;12.30;99.90
21770;DHT22;11046;49.558;8.674;2023-11-19T17:21:27;12.30;99.90
21770;DHT22;11046;49.558;8.674;2023-11-19T17:24:28;12.30;99.90
21770;DHT22;11046;49.558;8.674;2023-11-19T17:27:30;12.30;99.90
21770;DHT22;11046;49.558;8.674;2023-11-19T17:30:30;12.30;99.90
21770;DHT22;11046;49.558;8.674;2023-11-19T17:33:31;12.30;99.90
21770;DHT22;11046;49.558;8.674;2023-11-19T17:36:32;12.30;99.80
21770;DHT22;11046;49.558;8.674;2023-11-19T17:39:33;12.20;99.80
21770;DHT22;11046;49.558;8.674;2023-11-19T17:42:34;12.20;99.90
21770;DHT22;11046;49.558;8.674;2023-11-19T17:45:35;12.20;99.90
21770;DHT22;11046;49.558;8.674;2023-11-19T17:48:36;12.10;99.80
21770;DHT22;11046;49.558;8.674;2023-11-19T17:51:37;12.10;99.80
21770;DHT22;11046;49.558;8.674;2023-11-19T17:54:37;12.00;99.80
21770;DHT22;11046;49.558;8.674;2023-11-19T17:57:42;12.00;99.80
21770;DHT22;11046;49.558;8.674;2023-11-19T18:00:43;12.00;99.90
21770;DHT22;11046;49.558;8.674;2023-11-19T18:03:43;12.00;99.90
21770;DHT22;11046;49.558;8.674;2023-11-19T18:06:44;12.10;99.80
21770;DHT22;11046;49.558;8.674;2023-11-19T18:09:45;12.00;99.80
21770;DHT22;11046;49.558;8.674;2023-11-19T18:12:45;12.00;99.90
21770;DHT22;11046;49.558;8.674;2023-11-19T18:15:46;11.90;99.90
21770;DHT22;11046;49.558;8.674;2023-11-19T18:18:47;11.80;99.90
21770;DHT22;11046;49.558;8.674;2023-11-19T18:21:47;11.80;99.90
21770;DHT22;11046;49.558;8.674;2023-11-19T18:24:49;11.80;99.90
21770;DHT22;11046;49.558;8.674;2023-11-19T18:27:50;11.90;99.90
21770;DHT22;11046;49.558;8.674;2023-11-19T18:30:50;11.90;99.90
21770;DHT22;11046;49.558;8.674;2023-11-19T18:33:51;11.80;99.90
21770;DHT22;11046;49.558;8.674;2023-11-19T18:36:52;11.90;99.90
21770;DHT22;11046;49.558;8.674;2023-11-19T18:39:53;11.90;99.90
21770;DHT22;11046;49.558;8.674;2023-11-19T18:42:53;11.90;99.90
21770;DHT22;11046;49.558;8.674;2023-11-19T18:45:54;11.90;99.90
21770;DHT22;11046;49.558;8.674;2023-11-19T18:48:56;11.90;99.90
21770;DHT22;11046;49.558;8.674;2023-11-19T18:51:58;11.90;99.90
21770;DHT22;11046;49.558;8.674;2023-11-19T18:54:59;11.80;99.90
21770;DHT22;11046;49.558;8.674;2023-11-19T18:58:00;11.80;99.90
21770;DHT22;11046;49.558;8.674;2023-11-19T19:01:00;11.70;99.90
21770;DHT22;11046;49.558;8.674;2023-11-19T19:04:01;11.80;99.90
21770;DHT22;11046;49.558;8.674;2023-11-19T19:07:02;11.70;99.90
21770;DHT22;11046;49.558;8.674;2023-11-19T19:10:05;11.70;99.90
21770;DHT22;11046;49.558;8.674;2023-11-19T19:13:06;11.60;99.90
21770;DHT22;11046;49.558;8.674;2023-11-19T19:16:09;11.70;99.90
21770;DHT22;11046;49.558;8.674;2023-11-19T19:19:10;11.70;99.90
21770;DHT22;11046;49.558;8.674;2023-11-19T19:22:10;11.70;99.90
21770;DHT22;11046;49.558;8.674;2023-11-19T19:25:11;11.70;99.90